sensor_id;sensor_type;location;lat;lon;timestamp;temperature;humidity
10300;DHT22;5195;48.562;9.192;2022-09-17T00:00:13;13.60;51.40
10300;DHT22;5195;48.562;9.192;2022-09-17T00:02:50;13.80;50.40
10300;DHT22;5195;48.562;9.192;2022-09-17T00:05:25;14.20;49.60
10300;DHT22;5195;48.562;9.192;2022-09-17T00:08:00;14.50;48.90
10300;DHT22;5195;48.562;9.192;2022-09-17T00:10:37;14.40;49.70
10300;DHT22;5195;48.562;9.192;2022-09-17T00:13:11;14.40;49.30
10300;DHT22;5195;48.562;9.192;2022-09-17T00:15:47;14.20;49.90
10300;DHT22;5195;48.562;9.192;2022-09-17T00:18:23;14.30;50.20
10300;DHT22;5195;48.562;9.192;2022-09-17T00:20:58;14.60;50.40
10300;DHT22;5195;48.562;9.192;2022-09-17T00:23:34;14.80;50.20
10300;DHT22;5195;48.562;9.192;2022-09-17T00:26:09;14.90;50.30
10300;DHT22;5195;48.562;9.192;2022-09-17T00:28:48;14.70;50.90
10300;DHT22;5195;48.562;9.192;2022-09-17T00:31:22;14.70;50.30
10300;DHT22;5195;48.562;9.192;2022-09-17T00:33:59;14.60;51.00
10300;DHT22;5195;48.562;9.192;2022-09-17T00:36:35;14.60;51.00
10300;DHT22;5195;48.562;9.192;2022-09-17T00:39:10;14.50;51.50
10300;DHT22;5195;48.562;9.192;2022-09-17T00:41:45;14.60;51.10
10300;DHT22;5195;48.562;9.192;2022-09-17T00:44:46;14.50;51.60
10300;DHT22;5195;48.562;9.192;2022-09-17T00:47:30;14.20;52.10
10300;DHT22;5195;48.562;9.192;2022-09-17T00:50:57;13.90;52.70
10300;DHT22;5195;48.562;9.192;2022-09-17T00:52:59;14.10;52.20
10300;DHT22;5195;48.562;9.192;2022-09-17T00:55:36;14.00;52.10
10300;DHT22;5195;48.562;9.192;2022-09-17T00:58:10;13.80;52.70
10300;DHT22;5195;48.562;9.192;2022-09-17T01:00:45;14.00;52.60
10300;DHT22;5195;48.562;9.192;2022-09-17T01:03:20;14.00;52.90
10300;DHT22;5195;48.562;9.192;2022-09-17T01:06:20;13.80;53.30
10300;DHT22;5195;48.562;9.192;2022-09-17T01:12:20;14.40;52.00
10300;DHT22;5195;48.562;9.192;2022-09-17T01:32:25;13.80;53.70
10300;DHT22;5195;48.562;9.192;2022-09-17T01:35:00;14.10;52.50
10300;DHT22;5195;48.562;9.192;2022-09-17T01:37:33;14.00;52.60
10300;DHT22;5195;48.562;9.192;2022-09-17T01:40:14;13.80;53.20
10300;DHT22;5195;48.562;9.192;2022-09-17T01:45:44;13.80;52.90
10300;DHT22;5195;48.562;9.192;2022-09-17T01:48:20;14.20;52.10
10300;DHT22;5195;48.562;9.192;2022-09-17T01:51:06;14.60;51.40
10300;DHT22;5195;48.562;9.192;2022-09-17T01:53:45;14.70;51.10
10300;DHT22;5195;48.562;9.192;2022-09-17T01:56:20;14.80;50.60
10300;DHT22;5195;48.562;9.192;2022-09-17T01:59:02;14.50;51.20
10300;DHT22;5195;48.562;9.192;2022-09-17T02:01:37;14.10;52.10
10300;DHT22;5195;48.562;9.192;2022-09-17T02:04:18;14.10;51.80
10300;DHT22;5195;48.562;9.192;2022-09-17T02:06:55;14.40;51.50
10300;DHT22;5195;48.562;9.192;2022-09-17T02:09:35;14.60;50.90
10300;DHT22;5195;48.562;9.192;2022-09-17T02:12:11;14.80;50.80
10300;DHT22;5195;48.562;9.192;2022-09-17T02:14:49;14.90;50.20
10300;DHT22;5195;48.562;9.192;2022-09-17T02:17:36;15.00;50.10
10300;DHT22;5195;48.562;9.192;2022-09-17T02:20:09;15.10;50.40
10300;DHT22;5195;48.562;9.192;2022-09-17T02:22:51;15.20;50.10
10300;DHT22;5195;48.562;9.192;2022-09-17T02:25:27;14.80;50.20
10300;DHT22;5195;48.562;9.192;2022-09-17T02:28:10;14.80;50.20
10300;DHT22;5195;48.562;9.192;2022-09-17T02:30:42;14.40;51.20
10300;DHT22;5195;48.562;9.192;2022-09-17T02:33:18;14.00;52.00
10300;DHT22;5195;48.562;9.192;2022-09-17T02:35:54;13.60;53.30
10300;DHT22;5195;48.562;9.192;2022-09-17T02:38:30;13.60;53.30
10300;DHT22;5195;48.562;9.192;2022-09-17T02:41:16;13.50;53.70
10300;DHT22;5195;48.562;9.192;2022-09-17T02:52:27;14.10;53.00
10300;DHT22;5195;48.562;9.192;2022-09-17T03:00:35;14.70;52.00
10300;DHT22;5195;48.562;9.192;2022-09-17T03:03:22;14.90;51.60
10300;DHT22;5195;48.562;9.192;2022-09-17T03:05:56;14.90;51.40
10300;DHT22;5195;48.562;9.192;2022-09-17T03:08:32;14.60;52.00
10300;DHT22;5195;48.562;9.192;2022-09-17T03:11:07;14.60;52.90
10300;DHT22;5195;48.562;9.192;2022-09-17T03:13:42;14.70;52.10
10300;DHT22;5195;48.562;9.192;2022-09-17T03:16:19;14.80;52.00
10300;DHT22;5195;48.562;9.192;2022-09-17T03:18:55;14.60;52.50
10300;DHT22;5195;48.562;9.192;2022-09-17T03:21:30;14.60;52.50
10300;DHT22;5195;48.562;9.192;2022-09-17T03:24:06;14.70;52.00
10300;DHT22;5195;48.562;9.192;2022-09-17T03:26:41;14.50;52.40
10300;DHT22;5195;48.562;9.192;2022-09-17T03:29:18;14.10;53.20
10300;DHT22;5195;48.562;9.192;2022-09-17T03:31:54;13.80;53.80
10300;DHT22;5195;48.562;9.192;2022-09-17T03:34:29;13.90;53.40
10300;DHT22;5195;48.562;9.192;2022-09-17T03:37:05;13.80;53.70
10300;DHT22;5195;48.562;9.192;2022-09-17T03:39:41;13.60;54.40
10300;DHT22;5195;48.562;9.192;2022-09-17T03:42:16;13.70;53.80
10300;DHT22;5195;48.562;9.192;2022-09-17T03:44:52;14.00;53.00
10300;DHT22;5195;48.562;9.192;2022-09-17T03:47:27;13.90;53.30
10300;DHT22;5195;48.562;9.192;2022-09-17T03:50:04;13.90;53.00
10300;DHT22;5195;48.562;9.192;2022-09-17T03:52:39;13.70;53.30
10300;DHT22;5195;48.562;9.192;2022-09-17T03:55:14;13.80;52.90
10300;DHT22;5195;48.562;9.192;2022-09-17T03:57:50;14.00;52.20
10300;DHT22;5195;48.562;9.192;2022-09-17T04:00:25;14.20;52.00
10300;DHT22;5195;48.562;9.192;2022-09-17T04:03:02;13.90;52.50
10300;DHT22;5195;48.562;9.192;2022-09-17T04:05:37;13.60;53.40
10300;DHT22;5195;48.562;9.192;2022-09-17T04:08:12;13.70;53.10
10300;DHT22;5195;48.562;9.192;2022-09-17T04:10:48;13.60;53.40
10300;DHT22;5195;48.562;9.192;2022-09-17T04:13:23;13.30;53.90
10300;DHT22;5195;48.562;9.192;2022-09-17T04:15:59;13.50;53.50
10300;DHT22;5195;48.562;9.192;2022-09-17T04:18:34;13.40;53.60
10300;DHT22;5195;48.562;9.192;2022-09-17T04:21:10;13.60;53.10
10300;DHT22;5195;48.562;9.192;2022-09-17T04:23:46;13.80;52.40
10300;DHT22;5195;48.562;9.192;2022-09-17T04:26:22;14.20;51.70
10300;DHT22;5195;48.562;9.192;2022-09-17T04:28:57;14.10;51.60
10300;DHT22;5195;48.562;9.192;2022-09-17T04:31:33;13.90;52.30
10300;DHT22;5195;48.562;9.192;2022-09-17T04:34:09;13.50;53.10
10300;DHT22;5195;48.562;9.192;2022-09-17T04:36:44;13.20;53.80
10300;DHT22;5195;48.562;9.192;2022-09-17T04:39:21;13.40;53.60
10300;DHT22;5195;48.562;9.192;2022-09-17T04:41:57;13.40;53.90
10300;DHT22;5195;48.562;9.192;2022-09-17T04:44:32;13.20;54.50
10300;DHT22;5195;48.562;9.192;2022-09-17T04:47:08;13.20;54.30
10300;DHT22;5195;48.562;9.192;2022-09-17T04:49:44;13.20;54.30
10300;DHT22;5195;48.562;9.192;2022-09-17T04:52:20;13.30;54.40
10300;DHT22;5195;48.562;9.192;2022-09-17T04:54:57;12.80;55.10
10300;DHT22;5195;48.562;9.192;2022-09-17T04:57:33;12.80;55.10
10300;DHT22;5195;48.562;9.192;2022-09-17T05:00:09;12.70;55.60
10300;DHT22;5195;48.562;9.192;2022-09-17T05:02:45;12.80;54.80
10300;DHT22;5195;48.562;9.192;2022-09-17T05:05:20;12.80;54.80
10300;DHT22;5195;48.562;9.192;2022-09-17T05:07:56;12.70;55.30
10300;DHT22;5195;48.562;9.192;2022-09-17T05:10:31;12.80;54.80
10300;DHT22;5195;48.562;9.192;2022-09-17T05:13:07;12.80;54.90
10300;DHT22;5195;48.562;9.192;2022-09-17T05:15:42;12.60;55.40
10300;DHT22;5195;48.562;9.192;2022-09-17T05:18:18;12.40;55.70
10300;DHT22;5195;48.562;9.192;2022-09-17T05:20:54;12.70;55.20
10300;DHT22;5195;48.562;9.192;2022-09-17T05:23:30;12.70;55.20
10300;DHT22;5195;48.562;9.192;2022-09-17T05:26:06;12.60;55.80
10300;DHT22;5195;48.562;9.192;2022-09-17T05:28:41;12.90;54.50
10300;DHT22;5195;48.562;9.192;2022-09-17T05:31:17;13.40;53.90
10300;DHT22;5195;48.562;9.192;2022-09-17T05:33:53;13.70;53.00
10300;DHT22;5195;48.562;9.192;2022-09-17T05:36:28;14.00;52.60
10300;DHT22;5195;48.562;9.192;2022-09-17T05:39:04;14.20;52.00
10300;DHT22;5195;48.562;9.192;2022-09-17T05:41:39;14.00;52.50
10300;DHT22;5195;48.562;9.192;2022-09-17T05:44:15;13.70;53.30
10300;DHT22;5195;48.562;9.192;2022-09-17T05:46:51;13.40;54.00
10300;DHT22;5195;48.562;9.192;2022-09-17T05:49:26;13.60;53.10
10300;DHT22;5195;48.562;9.192;2022-09-17T05:52:02;13.90;52.10
10300;DHT22;5195;48.562;9.192;2022-09-17T05:54:37;13.80;52.50
10300;DHT22;5195;48.562;9.192;2022-09-17T05:57:13;13.90;52.20
10300;DHT22;5195;48.562;9.192;2022-09-17T05:59:48;13.70;52.70
10300;DHT22;5195;48.562;9.192;2022-09-17T06:02:24;13.80;52.50
10300;DHT22;5195;48.562;9.192;2022-09-17T06:04:59;13.70;53.10
10300;DHT22;5195;48.562;9.192;2022-09-17T06:07:37;13.50;53.80
10300;DHT22;5195;48.562;9.192;2022-09-17T06:10:12;13.60;53.40
10300;DHT22;5195;48.562;9.192;2022-09-17T06:12:53;14.00;52.70
10300;DHT22;5195;48.562;9.192;2022-09-17T06:15:25;13.90;53.00
10300;DHT22;5195;48.562;9.192;2022-09-17T06:18:00;14.00;52.90
10300;DHT22;5195;48.562;9.192;2022-09-17T06:20:35;14.00;53.30
10300;DHT22;5195;48.562;9.192;2022-09-17T06:23:11;13.80;54.10
10300;DHT22;5195;48.562;9.192;2022-09-17T06:25:55;13.70;54.60
10300;DHT22;5195;48.562;9.192;2022-09-17T06:28:29;13.70;55.10
10300;DHT22;5195;48.562;9.192;2022-09-17T06:31:06;13.70;55.50
10300;DHT22;5195;48.562;9.192;2022-09-17T06:33:42;14.10;56.60
10300;DHT22;5195;48.562;9.192;2022-09-17T06:36:19;15.10;54.80
10300;DHT22;5195;48.562;9.192;2022-09-17T06:38:54;15.10;54.80
10300;DHT22;5195;48.562;9.192;2022-09-17T06:41:31;16.10;51.60
10300;DHT22;5195;48.562;9.192;2022-09-17T06:44:07;16.10;51.50
10300;DHT22;5195;48.562;9.192;2022-09-17T06:46:43;16.40;52.00
10300;DHT22;5195;48.562;9.192;2022-09-17T06:49:18;16.50;52.10
10300;DHT22;5195;48.562;9.192;2022-09-17T06:51:54;16.50;52.20
10300;DHT22;5195;48.562;9.192;2022-09-17T06:54:30;16.90;49.90
10300;DHT22;5195;48.562;9.192;2022-09-17T06:57:06;16.90;49.90
10300;DHT22;5195;48.562;9.192;2022-09-17T06:59:41;16.80;50.20
10300;DHT22;5195;48.562;9.192;2022-09-17T07:02:17;16.70;50.30
10300;DHT22;5195;48.562;9.192;2022-09-17T07:04:52;16.90;47.70
10300;DHT22;5195;48.562;9.192;2022-09-17T07:07:28;16.90;48.20
10300;DHT22;5195;48.562;9.192;2022-09-17T07:10:04;17.00;46.00
10300;DHT22;5195;48.562;9.192;2022-09-17T07:12:40;17.20;46.00
10300;DHT22;5195;48.562;9.192;2022-09-17T07:15:15;17.40;45.40
10300;DHT22;5195;48.562;9.192;2022-09-17T07:17:51;17.50;44.90
10300;DHT22;5195;48.562;9.192;2022-09-17T07:20:29;17.40;45.80
10300;DHT22;5195;48.562;9.192;2022-09-17T07:23:02;17.00;46.50
10300;DHT22;5195;48.562;9.192;2022-09-17T07:25:38;16.80;47.40
10300;DHT22;5195;48.562;9.192;2022-09-17T07:28:13;16.60;47.90
10300;DHT22;5195;48.562;9.192;2022-09-17T07:30:49;16.60;48.20
10300;DHT22;5195;48.562;9.192;2022-09-17T07:33:25;16.80;46.10
10300;DHT22;5195;48.562;9.192;2022-09-17T07:36:01;16.80;46.90
10300;DHT22;5195;48.562;9.192;2022-09-17T07:38:37;16.90;46.10
10300;DHT22;5195;48.562;9.192;2022-09-17T07:41:13;16.90;46.10
10300;DHT22;5195;48.562;9.192;2022-09-17T07:43:50;17.00;45.60
10300;DHT22;5195;48.562;9.192;2022-09-17T07:46:25;16.90;46.30
10300;DHT22;5195;48.562;9.192;2022-09-17T07:49:01;16.60;47.20
10300;DHT22;5195;48.562;9.192;2022-09-17T07:51:38;16.70;46.80
10300;DHT22;5195;48.562;9.192;2022-09-17T07:54:13;16.70;47.50
10300;DHT22;5195;48.562;9.192;2022-09-17T07:56:49;16.50;48.10
10300;DHT22;5195;48.562;9.192;2022-09-17T07:59:24;16.40;48.50
10300;DHT22;5195;48.562;9.192;2022-09-17T08:02:00;16.40;48.70
10300;DHT22;5195;48.562;9.192;2022-09-17T08:04:35;16.60;47.20
10300;DHT22;5195;48.562;9.192;2022-09-17T08:07:11;17.00;46.00
10300;DHT22;5195;48.562;9.192;2022-09-17T08:09:48;17.00;46.90
10300;DHT22;5195;48.562;9.192;2022-09-17T08:12:23;17.20;46.60
10300;DHT22;5195;48.562;9.192;2022-09-17T08:14:59;17.40;45.50
10300;DHT22;5195;48.562;9.192;2022-09-17T08:17:36;17.30;46.20
10300;DHT22;5195;48.562;9.192;2022-09-17T08:20:11;17.40;46.20
10300;DHT22;5195;48.562;9.192;2022-09-17T08:22:47;17.50;45.90
10300;DHT22;5195;48.562;9.192;2022-09-17T08:25:22;17.30;46.30
10300;DHT22;5195;48.562;9.192;2022-09-17T08:27:59;17.20;45.50
10300;DHT22;5195;48.562;9.192;2022-09-17T08:30:37;17.30;45.70
10300;DHT22;5195;48.562;9.192;2022-09-17T08:33:14;17.40;46.40
10300;DHT22;5195;48.562;9.192;2022-09-17T08:35:53;17.60;46.20
10300;DHT22;5195;48.562;9.192;2022-09-17T08:38:29;17.70;45.90
10300;DHT22;5195;48.562;9.192;2022-09-17T08:41:09;17.90;46.00
10300;DHT22;5195;48.562;9.192;2022-09-17T09:01:12;16.20;49.20
10300;DHT22;5195;48.562;9.192;2022-09-17T09:06:29;16.70;48.20
10300;DHT22;5195;48.562;9.192;2022-09-17T09:09:05;16.90;47.10
10300;DHT22;5195;48.562;9.192;2022-09-17T09:11:41;17.40;46.20
10300;DHT22;5195;48.562;9.192;2022-09-17T09:14:24;17.40;46.20
10300;DHT22;5195;48.562;9.192;2022-09-17T09:16:59;17.50;46.80
10300;DHT22;5195;48.562;9.192;2022-09-17T09:19:42;17.50;48.00
10300;DHT22;5195;48.562;9.192;2022-09-17T09:22:29;17.50;47.90
10300;DHT22;5195;48.562;9.192;2022-09-17T09:25:21;17.90;45.70
10300;DHT22;5195;48.562;9.192;2022-09-17T09:28:19;18.10;46.10
10300;DHT22;5195;48.562;9.192;2022-09-17T09:30:54;18.20;43.50
10300;DHT22;5195;48.562;9.192;2022-09-17T09:33:29;18.60;43.70
10300;DHT22;5195;48.562;9.192;2022-09-17T09:36:05;18.70;44.70
10300;DHT22;5195;48.562;9.192;2022-09-17T09:39:16;18.80;43.30
10300;DHT22;5195;48.562;9.192;2022-09-17T09:41:58;19.00;41.50
10300;DHT22;5195;48.562;9.192;2022-09-17T09:44:33;18.80;43.40
10300;DHT22;5195;48.562;9.192;2022-09-17T09:50:07;19.00;42.70
10300;DHT22;5195;48.562;9.192;2022-09-17T09:53:16;19.10;42.50
10300;DHT22;5195;48.562;9.192;2022-09-17T09:58:59;18.80;43.50
10300;DHT22;5195;48.562;9.192;2022-09-17T10:01:35;18.60;44.10
10300;DHT22;5195;48.562;9.192;2022-09-17T10:04:18;18.70;42.60
10300;DHT22;5195;48.562;9.192;2022-09-17T10:07:08;18.80;43.30
10300;DHT22;5195;48.562;9.192;2022-09-17T10:09:43;18.60;43.90
10300;DHT22;5195;48.562;9.192;2022-09-17T10:12:18;18.50;44.30
10300;DHT22;5195;48.562;9.192;2022-09-17T10:14:54;18.40;44.40
10300;DHT22;5195;48.562;9.192;2022-09-17T10:17:29;18.20;44.00
10300;DHT22;5195;48.562;9.192;2022-09-17T10:22:44;18.40;41.10
10300;DHT22;5195;48.562;9.192;2022-09-17T10:25:30;18.50;40.70
10300;DHT22;5195;48.562;9.192;2022-09-17T10:30:53;18.70;40.90
10300;DHT22;5195;48.562;9.192;2022-09-17T10:33:26;18.70;40.90
10300;DHT22;5195;48.562;9.192;2022-09-17T10:36:01;18.80;40.20
10300;DHT22;5195;48.562;9.192;2022-09-17T10:38:38;18.90;39.90
10300;DHT22;5195;48.562;9.192;2022-09-17T10:41:17;18.90;39.80
10300;DHT22;5195;48.562;9.192;2022-09-17T10:43:51;19.10;39.60
10300;DHT22;5195;48.562;9.192;2022-09-17T10:46:28;19.10;39.60
10300;DHT22;5195;48.562;9.192;2022-09-17T10:51:41;18.60;41.60
10300;DHT22;5195;48.562;9.192;2022-09-17T10:54:35;18.30;42.20
10300;DHT22;5195;48.562;9.192;2022-09-17T10:57:06;17.90;42.60
10300;DHT22;5195;48.562;9.192;2022-09-17T11:00:06;18.00;41.60
10300;DHT22;5195;48.562;9.192;2022-09-17T11:02:45;18.00;41.60
10300;DHT22;5195;48.562;9.192;2022-09-17T11:05:39;17.60;42.40
10300;DHT22;5195;48.562;9.192;2022-09-17T11:08:19;17.80;41.30
10300;DHT22;5195;48.562;9.192;2022-09-17T11:13:55;18.00;41.70
10300;DHT22;5195;48.562;9.192;2022-09-17T11:17:00;18.80;39.20
10300;DHT22;5195;48.562;9.192;2022-09-17T11:19:41;18.60;40.20
10300;DHT22;5195;48.562;9.192;2022-09-17T11:31:04;18.60;39.00
10300;DHT22;5195;48.562;9.192;2022-09-17T11:42:30;17.70;42.40
10300;DHT22;5195;48.562;9.192;2022-09-17T11:45:11;17.70;42.30
10300;DHT22;5195;48.562;9.192;2022-09-17T11:47:46;17.60;43.30
10300;DHT22;5195;48.562;9.192;2022-09-17T11:50:21;17.40;44.60
10300;DHT22;5195;48.562;9.192;2022-09-17T11:53:16;17.40;45.30
10300;DHT22;5195;48.562;9.192;2022-09-17T11:55:39;17.80;45.40
10300;DHT22;5195;48.562;9.192;2022-09-17T11:58:25;18.40;45.50
10300;DHT22;5195;48.562;9.192;2022-09-17T12:01:03;18.90;42.70
10300;DHT22;5195;48.562;9.192;2022-09-17T12:03:40;19.00;40.50
10300;DHT22;5195;48.562;9.192;2022-09-17T12:06:17;19.00;40.50
10300;DHT22;5195;48.562;9.192;2022-09-17T12:08:56;19.00;41.40
10300;DHT22;5195;48.562;9.192;2022-09-17T12:11:34;18.80;40.80
10300;DHT22;5195;48.562;9.192;2022-09-17T12:14:15;19.20;39.00
10300;DHT22;5195;48.562;9.192;2022-09-17T12:16:49;19.10;38.90
10300;DHT22;5195;48.562;9.192;2022-09-17T12:22:13;19.20;38.40
10300;DHT22;5195;48.562;9.192;2022-09-17T12:24:51;18.90;38.70
10300;DHT22;5195;48.562;9.192;2022-09-17T12:27:41;18.90;37.90
10300;DHT22;5195;48.562;9.192;2022-09-17T12:30:19;18.90;39.00
10300;DHT22;5195;48.562;9.192;2022-09-17T12:39:08;18.10;38.10
10300;DHT22;5195;48.562;9.192;2022-09-17T12:42:04;18.10;38.10
10300;DHT22;5195;48.562;9.192;2022-09-17T12:45:08;17.70;39.10
10300;DHT22;5195;48.562;9.192;2022-09-17T12:48:03;17.40;39.80
10300;DHT22;5195;48.562;9.192;2022-09-17T12:51:09;17.70;38.90
10300;DHT22;5195;48.562;9.192;2022-09-17T12:53:42;17.70;40.10
10300;DHT22;5195;48.562;9.192;2022-09-17T12:57:03;18.10;39.50
10300;DHT22;5195;48.562;9.192;2022-09-17T12:59:15;18.50;38.60
10300;DHT22;5195;48.562;9.192;2022-09-17T13:02:27;18.60;38.60
10300;DHT22;5195;48.562;9.192;2022-09-17T13:14:06;18.20;38.20
10300;DHT22;5195;48.562;9.192;2022-09-17T13:16:51;18.20;38.20
10300;DHT22;5195;48.562;9.192;2022-09-17T13:19:34;17.90;39.30
10300;DHT22;5195;48.562;9.192;2022-09-17T13:22:18;18.00;39.50
10300;DHT22;5195;48.562;9.192;2022-09-17T13:25:06;17.90;40.10
10300;DHT22;5195;48.562;9.192;2022-09-17T13:27:43;17.90;40.00
10300;DHT22;5195;48.562;9.192;2022-09-17T13:30:19;17.60;40.70
10300;DHT22;5195;48.562;9.192;2022-09-17T13:32:54;16.90;41.90
10300;DHT22;5195;48.562;9.192;2022-09-17T13:38:09;15.60;48.50
10300;DHT22;5195;48.562;9.192;2022-09-17T13:40:45;15.50;49.40
10300;DHT22;5195;48.562;9.192;2022-09-17T13:43:21;15.40;50.90
10300;DHT22;5195;48.562;9.192;2022-09-17T13:48:36;15.30;52.00
10300;DHT22;5195;48.562;9.192;2022-09-17T13:54:05;15.10;52.70
10300;DHT22;5195;48.562;9.192;2022-09-17T13:56:44;15.20;54.60
10300;DHT22;5195;48.562;9.192;2022-09-17T13:59:20;15.50;53.60
10300;DHT22;5195;48.562;9.192;2022-09-17T14:04:55;15.40;52.90
10300;DHT22;5195;48.562;9.192;2022-09-17T14:07:31;15.30;52.90
10300;DHT22;5195;48.562;9.192;2022-09-17T14:12:57;14.90;53.50
10300;DHT22;5195;48.562;9.192;2022-09-17T14:23:44;15.50;51.80
10300;DHT22;5195;48.562;9.192;2022-09-17T14:35:46;15.80;53.20
10300;DHT22;5195;48.562;9.192;2022-09-17T14:38:37;15.60;53.00
10300;DHT22;5195;48.562;9.192;2022-09-17T14:43:51;15.30;53.50
10300;DHT22;5195;48.562;9.192;2022-09-17T14:46:39;15.30;53.90
10300;DHT22;5195;48.562;9.192;2022-09-17T14:51:49;15.70;52.30
10300;DHT22;5195;48.562;9.192;2022-09-17T14:54:25;15.90;51.00
10300;DHT22;5195;48.562;9.192;2022-09-17T14:57:00;15.80;50.80
10300;DHT22;5195;48.562;9.192;2022-09-17T14:59:50;15.70;50.60
10300;DHT22;5195;48.562;9.192;2022-09-17T15:02:39;15.70;50.60
10300;DHT22;5195;48.562;9.192;2022-09-17T15:05:28;15.70;50.80
10300;DHT22;5195;48.562;9.192;2022-09-17T15:13:36;15.90;50.70
10300;DHT22;5195;48.562;9.192;2022-09-17T15:16:19;16.40;49.50
10300;DHT22;5195;48.562;9.192;2022-09-17T15:18:56;16.40;49.50
10300;DHT22;5195;48.562;9.192;2022-09-17T15:21:44;16.70;48.40
10300;DHT22;5195;48.562;9.192;2022-09-17T15:27:23;16.00;49.00
10300;DHT22;5195;48.562;9.192;2022-09-17T15:30:08;16.10;49.10
10300;DHT22;5195;48.562;9.192;2022-09-17T15:32:40;16.30;48.20
10300;DHT22;5195;48.562;9.192;2022-09-17T15:35:26;16.60;47.40
10300;DHT22;5195;48.562;9.192;2022-09-17T15:38:03;16.70;47.10
10300;DHT22;5195;48.562;9.192;2022-09-17T15:40:41;16.70;47.10
10300;DHT22;5195;48.562;9.192;2022-09-17T15:43:27;16.50;47.70
10300;DHT22;5195;48.562;9.192;2022-09-17T15:46:26;16.10;48.30
10300;DHT22;5195;48.562;9.192;2022-09-17T15:49:02;16.20;48.50
10300;DHT22;5195;48.562;9.192;2022-09-17T15:51:37;16.60;48.10
10300;DHT22;5195;48.562;9.192;2022-09-17T15:54:26;17.20;47.80
10300;DHT22;5195;48.562;9.192;2022-09-17T15:56:51;17.20;47.80
10300;DHT22;5195;48.562;9.192;2022-09-17T15:59:29;17.10;48.20
10300;DHT22;5195;48.562;9.192;2022-09-17T16:02:08;17.40;47.00
10300;DHT22;5195;48.562;9.192;2022-09-17T16:04:40;17.40;46.90
10300;DHT22;5195;48.562;9.192;2022-09-17T16:10:14;17.00;48.40
10300;DHT22;5195;48.562;9.192;2022-09-17T16:12:50;17.10;47.20
10300;DHT22;5195;48.562;9.192;2022-09-17T16:15:26;17.30;47.00
10300;DHT22;5195;48.562;9.192;2022-09-17T16:18:01;17.20;47.60
10300;DHT22;5195;48.562;9.192;2022-09-17T16:20:37;17.20;46.80
10300;DHT22;5195;48.562;9.192;2022-09-17T16:23:14;17.40;46.40
10300;DHT22;5195;48.562;9.192;2022-09-17T16:25:50;17.50;46.20
10300;DHT22;5195;48.562;9.192;2022-09-17T16:28:25;17.50;46.10
10300;DHT22;5195;48.562;9.192;2022-09-17T16:31:01;17.30;46.70
10300;DHT22;5195;48.562;9.192;2022-09-17T16:33:36;16.90;47.10
10300;DHT22;5195;48.562;9.192;2022-09-17T16:36:14;16.60;47.60
10300;DHT22;5195;48.562;9.192;2022-09-17T16:38:48;16.40;48.40
10300;DHT22;5195;48.562;9.192;2022-09-17T16:41:25;16.20;48.70
10300;DHT22;5195;48.562;9.192;2022-09-17T16:44:00;16.40;47.50
10300;DHT22;5195;48.562;9.192;2022-09-17T16:46:36;16.80;46.80
10300;DHT22;5195;48.562;9.192;2022-09-17T16:49:16;17.30;46.20
10300;DHT22;5195;48.562;9.192;2022-09-17T16:51:51;17.30;46.20
10300;DHT22;5195;48.562;9.192;2022-09-17T16:54:27;17.60;46.00
10300;DHT22;5195;48.562;9.192;2022-09-17T16:57:04;17.40;46.40
10300;DHT22;5195;48.562;9.192;2022-09-17T16:59:40;17.10;46.60
10300;DHT22;5195;48.562;9.192;2022-09-17T17:02:16;17.10;46.60
10300;DHT22;5195;48.562;9.192;2022-09-17T17:04:52;17.00;47.10
10300;DHT22;5195;48.562;9.192;2022-09-17T17:07:27;16.70;47.60
10300;DHT22;5195;48.562;9.192;2022-09-17T17:10:03;16.50;48.10
10300;DHT22;5195;48.562;9.192;2022-09-17T17:12:40;16.50;47.40
10300;DHT22;5195;48.562;9.192;2022-09-17T17:15:17;16.50;48.00
10300;DHT22;5195;48.562;9.192;2022-09-17T17:17:53;16.10;48.60
10300;DHT22;5195;48.562;9.192;2022-09-17T17:20:29;16.00;48.50
10300;DHT22;5195;48.562;9.192;2022-09-17T17:23:05;15.80;48.50
10300;DHT22;5195;48.562;9.192;2022-09-17T17:25:40;16.00;47.20
10300;DHT22;5195;48.562;9.192;2022-09-17T17:28:16;15.90;47.50
10300;DHT22;5195;48.562;9.192;2022-09-17T17:30:53;15.60;47.90
10300;DHT22;5195;48.562;9.192;2022-09-17T17:33:32;15.70;47.30
10300;DHT22;5195;48.562;9.192;2022-09-17T17:36:08;16.00;47.10
10300;DHT22;5195;48.562;9.192;2022-09-17T17:38:46;16.20;46.10
10300;DHT22;5195;48.562;9.192;2022-09-17T17:41:21;15.90;46.80
10300;DHT22;5195;48.562;9.192;2022-09-17T17:43:57;15.80;47.60
10300;DHT22;5195;48.562;9.192;2022-09-17T17:46:33;15.90;47.60
10300;DHT22;5195;48.562;9.192;2022-09-17T17:49:09;15.60;48.60
10300;DHT22;5195;48.562;9.192;2022-09-17T17:51:46;15.50;48.50
10300;DHT22;5195;48.562;9.192;2022-09-17T17:54:20;15.30;49.00
10300;DHT22;5195;48.562;9.192;2022-09-17T17:56:56;14.90;49.60
10300;DHT22;5195;48.562;9.192;2022-09-17T17:59:32;14.80;50.20
10300;DHT22;5195;48.562;9.192;2022-09-17T18:02:08;14.80;50.20
10300;DHT22;5195;48.562;9.192;2022-09-17T18:04:44;14.90;51.90
10300;DHT22;5195;48.562;9.192;2022-09-17T18:07:19;14.80;51.20
10300;DHT22;5195;48.562;9.192;2022-09-17T18:09:56;14.80;51.40
10300;DHT22;5195;48.562;9.192;2022-09-17T18:12:31;14.80;51.90
10300;DHT22;5195;48.562;9.192;2022-09-17T18:15:07;15.10;52.40
10300;DHT22;5195;48.562;9.192;2022-09-17T18:17:43;14.90;52.50
10300;DHT22;5195;48.562;9.192;2022-09-17T18:20:19;14.50;53.00
10300;DHT22;5195;48.562;9.192;2022-09-17T18:22:55;14.80;54.00
10300;DHT22;5195;48.562;9.192;2022-09-17T18:25:31;14.80;54.00
10300;DHT22;5195;48.562;9.192;2022-09-17T18:28:07;15.00;53.70
10300;DHT22;5195;48.562;9.192;2022-09-17T18:30:42;15.10;53.50
10300;DHT22;5195;48.562;9.192;2022-09-17T18:33:22;14.90;53.70
10300;DHT22;5195;48.562;9.192;2022-09-17T18:35:59;14.50;54.30
10300;DHT22;5195;48.562;9.192;2022-09-17T18:38:32;14.10;55.00
10300;DHT22;5195;48.562;9.192;2022-09-17T18:41:10;13.90;55.70
10300;DHT22;5195;48.562;9.192;2022-09-17T18:43:43;13.80;56.20
10300;DHT22;5195;48.562;9.192;2022-09-17T18:46:19;13.60;56.40
10300;DHT22;5195;48.562;9.192;2022-09-17T18:48:55;13.90;56.50
10300;DHT22;5195;48.562;9.192;2022-09-17T18:51:30;13.90;56.30
10300;DHT22;5195;48.562;9.192;2022-09-17T18:54:07;13.70;56.60
10300;DHT22;5195;48.562;9.192;2022-09-17T18:56:41;13.50;56.90
10300;DHT22;5195;48.562;9.192;2022-09-17T18:59:17;13.40;57.10
10300;DHT22;5195;48.562;9.192;2022-09-17T19:01:52;13.30;57.40
10300;DHT22;5195;48.562;9.192;2022-09-17T19:04:29;13.60;56.50
10300;DHT22;5195;48.562;9.192;2022-09-17T19:07:05;13.70;56.40
10300;DHT22;5195;48.562;9.192;2022-09-17T19:09:40;13.50;56.70
10300;DHT22;5195;48.562;9.192;2022-09-17T19:12:16;13.40;57.70
10300;DHT22;5195;48.562;9.192;2022-09-17T19:14:52;13.20;57.30
10300;DHT22;5195;48.562;9.192;2022-09-17T19:17:27;13.50;56.40
10300;DHT22;5195;48.562;9.192;2022-09-17T19:20:03;13.90;55.80
10300;DHT22;5195;48.562;9.192;2022-09-17T19:22:39;14.00;55.30
10300;DHT22;5195;48.562;9.192;2022-09-17T19:25:15;13.90;55.20
10300;DHT22;5195;48.562;9.192;2022-09-17T19:27:52;13.90;55.50
10300;DHT22;5195;48.562;9.192;2022-09-17T19:30:27;13.70;56.00